Time,TemperatureF,DewpointF,PressureIn,WindDirection,WindDirectionDegrees,WindSpeedMPH,WindSpeedGustMPH,Humidity,HourlyPrecipIn,Conditions,Clouds,dailyrainin,SoftwareType,DateUTC
2013-10-24 00:03:00,52.6,47.0,29.95,WSW,255,0.0,3.0,80,0.00,,,0.18,weatherlink.com 1.10,2013-10-24 04:03:00,
2013-10-24 00:18:00,52.1,46.0,29.96,NNW,338,0.0,3.0,80,0.00,,,0.18,weatherlink.com 1.10,2013-10-24 04:18:00,
2013-10-24 00:33:00,51.6,46.0,29.96,NW,305,0.0,1.0,81,0.00,,,0.00,weatherlink.com 1.10,2013-10-24 04:33:00,
2013-10-24 00:49:00,51.1,46.0,29.97,West,278,0.0,3.0,82,0.00,,,0.00,weatherlink.com 1.10,2013-10-24 04:49:00,
2013-10-24 01:04:00,50.6,46.0,29.98,West,281,0.0,2.0,83,0.00,,,0.00,weatherlink.com 1.10,2013-10-24 05:04:00,
2013-10-24 01:19:00,50.0,45.0,29.98,ENE,59,1.0,3.0,84,0.00,,,0.00,weatherlink.com 1.10,2013-10-24 05:19:00,
2013-10-24 01:34:00,49.3,44.0,29.98,NNE,15,0.0,2.0,83,0.00,,,0.00,weatherlink.com 1.10,2013-10-24 05:34:00,
2013-10-24 01:49:00,48.9,43.0,29.99,North,3,1.0,3.0,80,0.00,,,0.00,weatherlink.com 1.10,2013-10-24 05:49:00,
2013-10-24 02:04:00,48.6,42.0,29.99,NNE,20,0.0,2.0,79,0.00,,,0.00,weatherlink.com 1.10,2013-10-24 06:04:00,
2013-10-24 02:19:00,48.1,42.0,29.99,NNW,332,0.0,3.0,78,0.00,,,0.00,weatherlink.com 1.10,2013-10-24 06:19:00,
2013-10-24 02:34:00,47.6,41.0,29.99,NNW,340,0.0,1.0,78,0.00,,,0.00,weatherlink.com 1.10,2013-10-24 06:34:00,
2013-10-24 02:49:00,47.1,41.0,30.00,NW,312,0.0,2.0,79,0.00,,,0.00,weatherlink.com 1.10,2013-10-24 06:49:00,
2013-10-24 03:04:00,46.7,41.0,30.00,NNW,328,0.0,2.0,80,0.00,,,0.00,weatherlink.com 1.10,2013-10-24 07:04:00,
2013-10-24 03:19:00,46.5,41.0,30.00,NW,312,0.0,2.0,80,0.00,,,0.00,weatherlink.com 1.10,2013-10-24 07:19:00,
2013-10-24 03:34:00,46.2,41.0,30.01,NW,305,0.0,3.0,81,0.00,,,0.00,weatherlink.com 1.10,2013-10-24 07:34:00,
2013-10-24 03:49:00,45.8,40.0,30.01,NNW,336,0.0,1.0,81,0.00,,,0.00,weatherlink.com 1.10,2013-10-24 07:49:00,
2013-10-24 04:05:00,45.3,40.0,30.02,North,360,0.0,1.0,83,0.00,,,0.00,weatherlink.com 1.10,2013-10-24 08:05:00,
2013-10-24 04:19:00,45.0,40.0,30.02,NNW,330,0.0,0.0,83,0.00,,,0.00,weatherlink.com 1.10,2013-10-24 08:19:00,
2013-10-24 04:34:00,44.7,40.0,30.03,NNW,342,0.0,0.0,84,0.00,,,0.00,weatherlink.com 1.10,2013-10-24 08:34:00,
2013-10-24 04:49:00,44.2,40.0,30.04,NNW,342,0.0,0.0,84,0.00,,,0.00,weatherlink.com 1.10,2013-10-24 08:49:00,
2013-10-24 05:04:00,43.9,40.0,30.05,North,6,0.0,1.0,86,0.00,,,0.00,weatherlink.com 1.10,2013-10-24 09:04:00,
2013-10-24 05:19:00,44.0,40.0,30.06,ENE,59,0.0,2.0,86,0.00,,,0.00,weatherlink.com 1.10,2013-10-24 09:19:00,
2013-10-24 05:34:00,43.9,40.0,30.06,NNW,347,0.0,1.0,85,0.00,,,0.00,weatherlink.com 1.10,2013-10-24 09:34:00,
2013-10-24 05:49:00,43.9,40.0,30.07,West,280,0.0,1.0,85,0.00,,,0.00,weatherlink.com 1.10,2013-10-24 09:49:00,
2013-10-24 06:04:00,43.9,40.0,30.08,NW,316,0.0,1.0,86,0.00,,,0.00,weatherlink.com 1.10,2013-10-24 10:04:00,
2013-10-24 06:19:00,43.8,40.0,30.08,NW,322,1.0,3.0,86,0.00,,,0.00,weatherlink.com 1.10,2013-10-24 10:19:00,
2013-10-24 06:35:00,43.7,40.0,30.08,NW,316,0.0,2.0,85,0.00,,,0.00,weatherlink.com 1.10,2013-10-24 10:35:00,
2013-10-24 06:50:00,43.2,39.0,30.08,WNW,299,0.0,2.0,85,0.00,,,0.00,weatherlink.com 1.10,2013-10-24 10:50:00,
2013-10-24 07:05:00,43.0,39.0,30.09,WNW,296,0.0,4.0,85,0.00,,,0.00,weatherlink.com 1.10,2013-10-24 11:05:00,
2013-10-24 07:20:00,42.6,38.0,30.09,NE,40,2.0,3.0,85,0.00,,,0.00,weatherlink.com 1.10,2013-10-24 11:20:00,
2013-10-24 07:35:00,43.0,39.0,30.10,WNW,290,1.0,3.0,85,0.00,,,0.00,weatherlink.com 1.10,2013-10-24 11:35:00,
2013-10-24 07:50:00,44.3,40.0,30.11,NE,52,0.0,2.0,84,0.00,,,0.00,weatherlink.com 1.10,2013-10-24 11:50:00,
2013-10-24 08:05:00,45.3,40.0,30.12,WNW,300,0.0,2.0,82,0.00,,,0.00,weatherlink.com 1.10,2013-10-24 12:05:00,
2013-10-24 08:20:00,45.5,40.0,30.12,NW,308,0.0,3.0,81,0.00,,,0.00,weatherlink.com 1.10,2013-10-24 12:20:00,
2013-10-24 08:35:00,46.3,40.0,30.13,NW,321,0.0,3.0,80,0.00,,,0.00,weatherlink.com 1.10,2013-10-24 12:35:00,
2013-10-24 08:50:00,47.3,41.0,30.14,NW,312,1.0,4.0,78,0.00,,,0.00,weatherlink.com 1.10,2013-10-24 12:50:00,
2013-10-24 11:50:00,56.7,41.0,30.14,ESE,106,2.0,6.0,57,0.04,,,0.04,weatherlink.com 1.10,2013-10-24 15:50:00,
2013-10-24 12:05:00,56.2,39.0,30.13,NNE,31,4.0,4.0,53,0.04,,,0.04,weatherlink.com 1.10,2013-10-24 16:05:00,
2013-10-24 12:21:00,57.1,41.0,30.13,West,259,1.0,5.0,55,0.04,,,0.04,weatherlink.com 1.10,2013-10-24 16:21:00,
2013-10-24 12:36:00,56.9,42.0,30.12,West,264,1.0,6.0,57,0.00,,,0.04,weatherlink.com 1.10,2013-10-24 16:36:00,
2013-10-24 12:51:00,57.4,41.0,30.11,South,181,0.0,5.0,54,0.00,,,0.04,weatherlink.com 1.10,2013-10-24 16:51:00,
2013-10-24 13:06:00,57.4,40.0,30.11,West,267,2.0,6.0,52,0.00,,,0.04,weatherlink.com 1.10,2013-10-24 17:06:00,
2013-10-24 13:21:00,57.2,40.0,30.10,West,267,0.0,9.0,54,0.00,,,0.04,weatherlink.com 1.10,2013-10-24 17:21:00,
2013-10-24 13:36:00,58.1,40.0,30.09,WSW,255,1.0,9.0,52,0.00,,,0.04,weatherlink.com 1.10,2013-10-24 17:36:00,
2013-10-24 13:51:00,58.5,40.0,30.09,West,280,4.0,7.0,51,0.00,,,0.04,weatherlink.com 1.10,2013-10-24 17:51:00,
2013-10-24 14:06:00,58.9,40.0,30.09,WSW,237,4.0,5.0,49,0.00,,,0.04,weatherlink.com 1.10,2013-10-24 18:06:00,
2013-10-24 14:21:00,58.7,39.0,30.08,West,277,1.0,5.0,49,0.00,,,0.04,weatherlink.com 1.10,2013-10-24 18:21:00,
2013-10-24 14:36:00,58.9,40.0,30.07,SW,218,0.0,9.0,50,0.00,,,0.04,weatherlink.com 1.10,2013-10-24 18:36:00,
2013-10-24 14:51:00,59.2,39.0,30.08,WNW,292,2.0,4.0,47,0.00,,,0.04,weatherlink.com 1.10,2013-10-24 18:51:00,
2013-10-24 15:06:00,59.2,42.0,30.07,WNW,289,2.0,9.0,53,0.00,,,0.04,weatherlink.com 1.10,2013-10-24 19:06:00,
2013-10-24 15:21:00,59.3,40.0,30.07,WSW,242,5.0,6.0,49,0.00,,,0.04,weatherlink.com 1.10,2013-10-24 19:21:00,
2013-10-24 15:36:00,59.3,38.0,30.07,WSW,252,2.0,4.0,46,0.00,,,0.04,weatherlink.com 1.10,2013-10-24 19:36:00,
2013-10-24 15:51:00,59.7,38.0,30.07,West,271,0.0,4.0,45,0.00,,,0.04,weatherlink.com 1.10,2013-10-24 19:51:00,
2013-10-24 16:06:00,59.7,39.0,30.07,NW,312,0.0,2.0,47,0.00,,,0.04,weatherlink.com 1.10,2013-10-24 20:06:00,
2013-10-24 16:21:00,59.4,39.0,30.08,West,280,0.0,4.0,48,0.00,,,0.04,weatherlink.com 1.10,2013-10-24 20:21:00,
2013-10-24 16:36:00,59.3,39.0,30.08,WSW,244,0.0,7.0,48,0.00,,,0.04,weatherlink.com 1.10,2013-10-24 20:36:00,
2013-10-24 16:51:00,58.8,39.0,30.08,SSW,203,0.0,2.0,48,0.00,,,0.04,weatherlink.com 1.10,2013-10-24 20:51:00,
2013-10-24 17:06:00,58.5,40.0,30.08,SSW,209,1.0,4.0,51,0.00,,,0.04,weatherlink.com 1.10,2013-10-24 21:06:00,
2013-10-24 17:36:00,57.2,41.0,30.09,North,354,0.0,1.0,56,0.00,,,0.04,weatherlink.com 1.10,2013-10-24 21:36:00,
2013-10-24 17:51:00,56.2,42.0,30.10,North,350,0.0,1.0,60,0.00,,,0.04,weatherlink.com 1.10,2013-10-24 21:51:00,
2013-10-24 18:06:00,55.1,43.0,30.11,North,359,0.0,1.0,64,0.00,,,0.04,weatherlink.com 1.10,2013-10-24 22:06:00,
2013-10-24 18:21:00,53.7,43.0,30.11,North,353,0.0,0.0,68,0.00,,,0.04,weatherlink.com 1.10,2013-10-24 22:21:00,
2013-10-24 18:36:00,52.4,43.0,30.12,North,350,0.0,0.0,70,0.00,,,0.04,weatherlink.com 1.10,2013-10-24 22:36:00,
2013-10-24 18:51:00,51.6,43.0,30.12,North,350,0.0,1.0,72,0.00,,,0.04,weatherlink.com 1.10,2013-10-24 22:51:00,
2013-10-24 19:06:00,51.0,43.0,30.13,North,350,0.0,0.0,75,0.00,,,0.04,weatherlink.com 1.10,2013-10-24 23:06:00,
2013-10-24 19:21:00,50.4,43.0,30.13,North,350,0.0,0.0,77,0.00,,,0.04,weatherlink.com 1.10,2013-10-24 23:21:00,
2013-10-24 19:36:00,49.9,44.0,30.14,North,350,0.0,0.0,79,0.00,,,0.04,weatherlink.com 1.10,2013-10-24 23:36:00,
2013-10-24 19:51:00,49.5,44.0,30.14,NNW,347,0.0,0.0,80,0.00,,,0.04,weatherlink.com 1.10,2013-10-24 23:51:00,
2013-10-24 20:06:00,49.1,43.0,30.14,NNW,347,0.0,0.0,80,0.00,,,0.04,weatherlink.com 1.10,2013-10-25 00:06:00,
2013-10-24 20:21:00,48.7,43.0,30.14,NNW,347,0.0,0.0,82,0.00,,,0.04,weatherlink.com 1.10,2013-10-25 00:21:00,
2013-10-24 20:36:00,48.2,43.0,30.15,NNW,339,0.0,1.0,82,0.00,,,0.04,weatherlink.com 1.10,2013-10-25 00:36:00,
2013-10-24 20:51:00,48.1,43.0,30.15,NW,304,0.0,1.0,82,0.00,,,0.04,weatherlink.com 1.10,2013-10-25 00:51:00,
2013-10-24 21:06:00,48.1,43.0,30.16,NW,304,0.0,1.0,82,0.00,,,0.04,weatherlink.com 1.10,2013-10-25 01:06:00,
2013-10-24 21:21:00,48.1,43.0,30.16,NW,304,0.0,1.0,82,0.00,,,0.04,weatherlink.com 1.10,2013-10-25 01:21:00,
2013-10-24 21:36:00,48.1,43.0,30.16,NW,305,1.0,1.0,82,0.00,,,0.04,weatherlink.com 1.10,2013-10-25 01:36:00,
2013-10-24 21:51:00,48.1,44.0,30.17,NW,305,0.0,1.0,84,0.00,,,0.04,weatherlink.com 1.10,2013-10-25 01:51:00,
2013-10-24 22:06:00,47.9,43.0,30.17,NW,305,0.0,1.0,84,0.00,,,0.04,weatherlink.com 1.10,2013-10-25 02:06:00,
2013-10-24 22:21:00,47.9,44.0,30.17,NW,304,1.0,1.0,85,0.00,,,0.04,weatherlink.com 1.10,2013-10-25 02:21:00,
2013-10-24 22:36:00,48.0,43.0,30.17,NW,304,0.0,1.0,84,0.00,,,0.04,weatherlink.com 1.10,2013-10-25 02:36:00,
2013-10-24 22:51:00,47.8,43.0,30.17,NW,306,1.0,1.0,84,0.00,,,0.04,weatherlink.com 1.10,2013-10-25 02:51:00,
2013-10-24 23:06:00,47.4,43.0,30.17,NW,309,1.0,1.0,84,0.00,,,0.04,weatherlink.com 1.10,2013-10-25 03:06:00,
2013-10-24 23:21:00,47.2,43.0,30.17,NW,309,0.0,2.0,85,0.00,,,0.04,weatherlink.com 1.10,2013-10-25 03:21:00,
2013-10-24 23:37:00,46.8,43.0,30.18,NW,309,1.0,3.0,85,0.00,,,0.04,weatherlink.com 1.10,2013-10-25 03:37:00,
2013-10-24 23:52:00,46.7,43.0,30.18,NW,312,0.0,2.0,85,0.00,,,0.04,weatherlink.com 1.10,2013-10-25 03:52:00,